Time;durP1;ratioP1;P1;durP2;ratioP2;P2;SDS_P1;SDS_P2;PMS_P1;PMS_P2;Temp;Humidity;BMP_temperature;BMP_pressure;BME280_temperature;BME280_humidity;BME280_pressure;Samples;Min_cycle;Max_cycle;Signal;HPM_P1;HPM_P2
2023/05/17 00:01:55;;;;;;;26.63;5.70;;;;;;;6.22;100.00;101264.47;7386157;19;20450;-41
2023/05/17 00:04:27;;;;;;;25.60;5.00;;;;;;;6.17;100.00;101268.41;7387814;19;20419;-41
2023/05/17 00:06:57;;;;;;;25.60;5.93;;;;;;;6.16;100.00;101279.44;7386921;19;20430;-42
2023/05/17 00:09:26;;;;;;;59.07;11.90;;;;;;;6.16;100.00;101274.31;7392133;19;20504;-43
2023/05/17 00:11:56;;;;;;;20.53;5.10;;;;;;;6.11;100.00;101276.56;7387303;19;20437;-43
2023/05/17 00:14:25;;;;;;;29.20;6.10;;;;;;;6.01;100.00;101280.13;7392778;19;20431;-44
2023/05/17 00:16:55;;;;;;;40.87;6.20;;;;;;;6.01;100.00;101275.00;7386562;19;20446;-42
2023/05/17 00:19:27;;;;;;;15.73;5.23;;;;;;;5.85;100.00;101267.06;7391860;19;20485;-40
2023/05/17 00:21:57;;;;;;;20.00;4.57;;;;;;;5.84;100.00;101276.41;7386826;19;20460;-43
2023/05/17 00:24:27;;;;;;;29.73;5.43;;;;;;;5.78;100.00;101286.22;7391465;19;20450;-43
2023/05/17 00:26:57;;;;;;;19.47;4.30;;;;;;;5.75;100.00;101288.56;7388555;19;20533;-44
2023/05/17 00:29:27;;;;;;;18.00;4.40;;;;;;;5.77;100.00;101290.47;7391656;19;20407;-42
2023/05/17 00:31:57;;;;;;;23.27;5.60;;;;;;;5.75;100.00;101286.00;7386858;19;20446;-43
2023/05/17 00:34:29;;;;;;;19.07;4.43;;;;;;;5.68;100.00;101289.81;7390207;19;20423;-42
2023/05/17 00:36:58;;;;;;;21.87;4.40;;;;;;;5.58;100.00;101297.63;7386728;19;20533;-42
2023/05/17 00:39:28;;;;;;;28.77;6.07;;;;;;;5.57;100.00;101293.28;7391063;19;20937;-41
2023/05/17 00:41:57;;;;;;;41.50;11.03;;;;;;;5.53;100.00;101295.63;7386212;19;20793;-46
2023/05/17 00:44:27;;;;;;;29.60;6.43;;;;;;;5.61;100.00;101287.59;7390870;19;21306;-43
2023/05/17 00:46:58;;;;;;;28.40;7.00;;;;;;;5.65;100.00;101297.28;7390209;19;20985;-42
2023/05/17 00:49:30;;;;;;;25.33;4.67;;;;;;;5.61;100.00;101305.53;7397433;19;20436;-43
2023/05/17 00:52:00;;;;;;;45.33;9.43;;;;;;;5.75;100.00;101312.50;7392014;19;20537;-41
2023/05/17 00:54:30;;;;;;;20.40;5.07;;;;;;;5.74;100.00;101310.72;7397186;19;20429;-42
2023/05/17 00:57:00;;;;;;;19.20;5.10;;;;;;;5.76;100.00;101316.84;7393350;19;20440;-43
2023/05/17 00:59:31;;;;;;;15.10;4.50;;;;;;;5.71;100.00;101320.75;7397085;19;20418;-41
2023/05/17 01:02:01;;;;;;;25.43;5.93;;;;;;;5.73;100.00;101321.75;7393126;19;20836;-40
2023/05/17 01:04:33;;;;;;;20.60;5.30;;;;;;;5.71;100.00;101323.31;7398360;19;20452;-39
2023/05/17 01:07:03;;;;;;;31.60;4.80;;;;;;;5.67;100.00;101324.78;7392876;19;20445;-42
2023/05/17 01:09:33;;;;;;;26.17;4.40;;;;;;;5.64;100.00;101326.25;7397139;19;20424;-42
2023/05/17 01:12:09;;;;;;;19.90;4.30;;;;;;;5.63;100.00;101322.78;7391922;19;20445;-41
2023/05/17 01:14:45;;;;;;;24.77;4.80;;;;;;;5.64;100.00;101328.78;7397366;19;20521;-41
2023/05/17 01:17:19;;;;;;;33.03;4.73;;;;;;;5.62;100.00;101330.34;7393131;19;20516;-41
2023/05/17 01:19:57;;;;;;;23.93;4.30;;;;;;;5.47;100.00;101328.47;7395826;19;20413;-42
2023/05/17 01:22:34;;;;;;;17.30;3.90;;;;;;;5.44;100.00;101330.78;7393306;19;20794;-44
2023/05/17 01:25:17;;;;;;;23.83;5.40;;;;;;;5.42;100.00;101334.94;7395825;19;20992;-41
2023/05/17 01:27:51;;;;;;;17.30;4.40;;;;;;;5.39;100.00;101332.16;7395529;19;20456;-45
2023/05/17 01:30:21;;;;;;;15.57;4.00;;;;;;;5.41;100.00;101348.50;7395140;19;20999;-42
2023/05/17 01:32:52;;;;;;;22.17;4.03;;;;;;;5.26;100.00;101354.31;7394386;19;20456;-45
2023/05/17 01:35:22;;;;;;;18.70;4.33;;;;;;;5.34;100.00;101357.41;7397459;19;20799;-43
2023/05/17 01:37:51;;;;;;;18.67;4.70;;;;;;;5.27;100.00;101353.53;7394243;19;20443;-44
2023/05/17 01:40:21;;;;;;;23.20;3.83;;;;;;;5.30;100.00;101362.19;7396138;19;20418;-44
2023/05/17 01:42:57;;;;;;;16.70;3.80;;;;;;;5.21;100.00;101362.41;7393059;19;20441;-43
2023/05/17 01:45:31;;;;;;;26.13;5.40;;;;;;;5.19;100.00;101359.75;7396872;19;20452;-41
2023/05/17 01:48:08;;;;;;;17.47;3.73;;;;;;;5.13;100.00;101364.41;7394282;19;20524;-43
2023/05/17 01:50:40;;;;;;;24.53;3.53;;;;;;;5.11;100.00;101365.94;7399364;19;20960;-43
2023/05/17 01:53:12;;;;;;;17.53;3.97;;;;;;;5.10;100.00;101366.75;7394357;19;20445;-41
2023/05/17 01:55:45;;;;;;;15.07;3.53;;;;;;;5.03;100.00;101377.28;7397608;19;20495;-42
2023/05/17 01:58:18;;;;;;;10.60;3.53;;;;;;;4.99;100.00;101381.28;7391811;19;20463;-42
2023/05/17 02:00:48;;;;;;;25.13;3.97;;;;;;;4.99;100.00;101377.06;7396779;19;20409;-39
2023/05/17 02:03:19;;;;;;;12.30;3.53;;;;;;;4.94;100.00;101388.63;7396269;19;20469;-41
2023/05/17 02:05:49;;;;;;;14.47;3.53;;;;;;;4.90;100.00;101375.47;7394727;19;21014;-39
2023/05/17 02:08:18;;;;;;;17.00;3.70;;;;;;;4.94;100.00;101378.41;7397250;19;20452;-41
2023/05/17 02:10:48;;;;;;;27.43;3.63;;;;;;;4.92;100.00;101387.59;7396349;19;20410;-40
2023/05/17 02:13:20;;;;;;;17.00;3.20;;;;;;;4.86;100.00;101397.38;7395896;19;20556;-41
2023/05/17 02:15:50;;;;;;;17.93;4.20;;;;;;;4.83;100.00;101398.03;7394440;19;20461;-41
2023/05/17 02:18:20;;;;;;;16.97;4.10;;;;;;;4.80;100.00;101404.59;7397057;19;20456;-40
2023/05/17 02:20:50;;;;;;;15.53;3.30;;;;;;;4.69;100.00;101406.34;7394576;19;20408;-42
2023/05/17 02:23:20;;;;;;;15.30;3.63;;;;;;;4.69;100.00;101406.34;7395823;19;20538;-40
2023/05/17 02:25:49;;;;;;;21.77;3.87;;;;;;;4.65;100.00;101419.66;7393745;19;20448;-40
2023/05/17 02:28:21;;;;;;;23.87;2.90;;;;;;;4.55;100.00;101418.06;7395724;19;20839;-43
2023/05/17 02:30:52;;;;;;;15.87;2.33;;;;;;;4.57;100.00;101421.63;7394030;19;20480;-42
2023/05/17 02:33:21;;;;;;;19.73;3.03;;;;;;;4.51;100.00;101423.72;7392820;19;20518;-39
2023/05/17 02:35:51;;;;;;;37.53;4.07;;;;;;;4.46;100.00;101421.69;7394070;19;20447;-40
2023/05/17 02:38:21;;;;;;;19.17;3.10;;;;;;;4.46;100.00;101420.78;7395771;19;20443;-41
2023/05/17 02:40:50;;;;;;;21.53;2.90;;;;;;;4.39;100.00;101421.09;7393845;19;20479;-40
2023/05/17 02:43:22;;;;;;;12.53;2.83;;;;;;;4.40;100.00;101436.56;7394672;19;20522;-43
2023/05/17 02:45:52;;;;;;;12.47;2.70;;;;;;;4.39;100.00;101439.88;7390823;19;20450;-41
2023/05/17 02:48:22;;;;;;;12.43;3.00;;;;;;;4.31;100.00;101446.06;7393807;19;20415;-40
2023/05/17 02:50:51;;;;;;;22.57;3.20;;;;;;;4.24;100.00;101443.78;7393722;19;20407;-42
2023/05/17 02:53:21;;;;;;;13.60;2.67;;;;;;;4.23;100.00;101444.56;7394963;19;20451;-42
2023/05/17 02:55:51;;;;;;;24.93;9.10;;;;;;;4.31;100.00;101453.72;7393679;19;20451;-42
2023/05/17 02:58:23;;;;;;;15.27;2.53;;;;;;;4.26;100.00;101448.25;7395730;19;20431;-41
2023/05/17 03:00:53;;;;;;;25.07;3.07;;;;;;;4.22;100.00;101453.00;7390284;19;20489;-42
2023/05/17 03:03:22;;;;;;;16.13;3.30;;;;;;;4.19;100.00;101457.09;7392497;19;20439;-43
2023/05/17 03:05:52;;;;;;;22.77;3.90;;;;;;;4.18;100.00;101451.88;7390821;19;20476;-40
2023/05/17 03:08:21;;;;;;;20.77;3.70;;;;;;;4.16;100.00;101451.72;7392401;19;20415;-40
2023/05/17 03:10:51;;;;;;;22.60;2.90;;;;;;;4.11;100.00;101460.69;7393024;19;20493;-42
2023/05/17 03:13:23;;;;;;;12.43;3.63;;;;;;;4.16;100.00;101468.75;7394500;19;20527;-43
2023/05/17 03:15:53;;;;;;;19.20;3.00;;;;;;;4.07;100.00;101483.31;7390458;19;20455;-44
2023/05/17 03:18:22;;;;;;;17.07;2.53;;;;;;;4.01;100.00;101483.72;7393010;19;20416;-41
2023/05/17 03:20:52;;;;;;;13.00;2.97;;;;;;;4.03;100.00;101494.94;7389027;19;20412;-41
2023/05/17 03:23:22;;;;;;;15.33;2.90;;;;;;;3.98;100.00;101499.69;7394407;19;20427;-41
2023/05/17 03:25:52;;;;;;;11.13;3.27;;;;;;;3.92;100.00;101495.00;7389983;19;20455;-41
2023/05/17 03:28:24;;;;;;;13.33;2.00;;;;;;;3.89;100.00;101504.94;7392821;19;20412;-40
2023/05/17 03:30:54;;;;;;;12.53;2.57;;;;;;;3.96;100.00;101523.31;7390024;19;20411;-41
2023/05/17 03:33:23;;;;;;;11.30;2.43;;;;;;;3.91;100.00;101517.84;7392444;19;20428;-43
2023/05/17 03:35:53;;;;;;;13.23;2.80;;;;;;;3.90;100.00;101516.94;7389923;19;20807;-42
2023/05/17 03:38:23;;;;;;;21.23;2.97;;;;;;;3.88;100.00;101526.16;7393584;19;20419;-41
2023/05/17 03:40:53;;;;;;;13.57;2.33;;;;;;;3.86;100.00;101537.91;7389658;19;20424;-40
2023/05/17 03:43:25;;;;;;;11.63;2.70;;;;;;;3.85;100.00;101543.75;7387399;19;20430;-42
2023/05/17 03:45:54;;;;;;;19.37;3.20;;;;;;;3.82;100.00;101533.31;7388643;19;20447;-42
2023/05/17 03:48:24;;;;;;;18.17;2.73;;;;;;;3.80;100.00;101539.97;7392175;19;20416;-43
2023/05/17 03:50:54;;;;;;;20.47;3.87;;;;;;;3.76;100.00;101550.69;7389405;19;20400;-41
2023/05/17 03:53:24;;;;;;;7.67;1.90;;;;;;;3.76;100.00;101558.34;7391318;19;20494;-41
2023/05/17 03:55:53;;;;;;;9.87;2.13;;;;;;;3.73;100.00;101558.97;7388393;19;20519;-40
2023/05/17 03:58:25;;;;;;;10.07;2.77;;;;;;;3.79;100.00;101563.69;7392014;19;20404;-41
2023/05/17 04:00:55;;;;;;;8.33;2.10;;;;;;;3.69;100.00;101566.25;7388500;19;20488;-42
2023/05/17 04:03:24;;;;;;;16.03;3.23;;;;;;;3.70;100.00;101575.69;7390746;19;20427;-41
2023/05/17 04:08:27;;;;;;;17.10;3.50;;;;;;;3.60;100.00;101493.25;7407045;19;20849;-36
2023/05/17 04:10:56;;;;;;;19.30;2.87;;;;;;;3.67;100.00;101493.75;7420139;19;20443;-36
2023/05/17 04:13:24;;;;;;;14.50;2.37;;;;;;;3.70;100.00;101514.44;7421468;19;20459;-37
2023/05/17 04:15:53;;;;;;;11.37;2.77;;;;;;;3.72;100.00;101518.00;7420119;19;20383;-36
2023/05/17 04:18:21;;;;;;;12.50;2.40;;;;;;;3.73;100.00;101527.44;7419665;19;20387;-36
2023/05/17 04:20:50;;;;;;;17.53;3.03;;;;;;;3.77;100.00;101534.59;7419176;19;20455;-36
2023/05/17 04:23:18;;;;;;;12.90;2.40;;;;;;;3.81;100.00;101528.06;7416706;19;20419;-37
2023/05/17 04:25:50;;;;;;;14.50;3.25;;;;;;;4.45;100.00;101519.59;7268985;19;2911776;-38
2023/05/17 04:28:20;;;;;;;26.83;4.27;;;;;;;4.41;100.00;101525.22;7419460;19;20226;-36
2023/05/17 04:30:51;;;;;;;18.43;2.50;;;;;;;4.16;100.00;101525.81;7423374;19;20454;-36
2023/05/17 04:33:21;;;;;;;34.47;11.10;;;;;;;4.16;100.00;101528.38;7425760;19;20415;-39
2023/05/17 04:35:52;;;;;;;35.40;12.57;;;;;;;4.36;100.00;101544.38;7416242;19;20458;-41
2023/05/17 04:38:22;;;;;;;13.00;3.23;;;;;;;4.83;100.00;101550.59;7424696;19;20794;-41
2023/05/17 04:40:54;;;;;;;27.60;10.93;;;;;;;4.92;100.00;101569.19;7421658;19;20401;-39
2023/05/17 04:43:24;;;;;;;20.83;6.13;;;;;;;5.32;100.00;101591.84;7421047;19;20390;-41
2023/05/17 04:45:58;;;;;;;16.17;2.43;;;;;;;4.91;100.00;101621.13;7418060;19;20790;-42
2023/05/17 04:48:28;;;;;;;18.13;2.83;;;;;;;4.81;100.00;101672.28;7420698;19;20391;-41
2023/05/17 04:50:58;;;;;;;8.93;2.00;;;;;;;4.73;100.00;101762.06;7418849;19;20401;-40
2023/05/17 04:53:27;;;;;;;14.93;2.50;;;;;;;4.64;100.00;101835.47;7420840;19;20385;-43
2023/05/17 04:56:00;;;;;;;15.33;3.40;;;;;;;4.75;100.00;101876.34;7417913;19;20429;-42
2023/05/17 04:58:30;;;;;;;46.23;16.80;;;;;;;5.38;100.00;101901.09;7419926;19;20801;-41
2023/05/17 05:01:00;;;;;;;25.53;4.83;;;;;;;5.35;100.00;101926.47;7419042;19;20410;-40
2023/05/17 05:03:29;;;;;;;12.00;3.03;;;;;;;5.17;100.00;101942.09;7420222;19;20429;-44
2023/05/17 05:05:59;;;;;;;13.60;2.10;;;;;;;5.13;100.00;101960.53;7419979;19;20824;-42
2023/05/17 05:08:30;;;;;;;16.27;4.43;;;;;;;5.10;100.00;101973.97;7420459;19;20778;-42
2023/05/17 05:11:02;;;;;;;12.33;2.53;;;;;;;5.08;100.00;101990.81;7420249;19;20750;-42
2023/05/17 05:13:31;;;;;;;20.13;4.17;;;;;;;5.11;100.00;102005.53;7420554;19;20387;-41
2023/05/17 05:16:01;;;;;;;15.50;3.67;;;;;;;5.24;100.00;102018.59;7416973;19;20430;-41
2023/05/17 05:18:31;;;;;;;21.97;2.80;;;;;;;5.09;100.00;102017.31;7407548;19;20387;-42
2023/05/17 05:21:01;;;;;;;10.60;3.30;;;;;;;5.09;100.00;102022.44;7389845;19;20398;-42
2023/05/17 05:23:30;;;;;;;22.10;3.10;;;;;;;5.11;100.00;102031.13;7390576;19;20385;-41
2023/05/17 05:26:02;;;;;;;15.80;2.83;;;;;;;5.06;100.00;102040.06;7386000;19;20503;-41
2023/05/17 05:28:32;;;;;;;11.70;2.73;;;;;;;5.08;100.00;102043.69;7394608;19;20409;-44
2023/05/17 05:31:02;;;;;;;20.37;7.10;;;;;;;5.27;100.00;102048.66;7391847;19;20833;-43
2023/05/17 05:33:32;;;;;;;17.63;5.37;;;;;;;5.38;100.00;102054.69;7393781;19;20397;-42
2023/05/17 05:36:01;;;;;;;19.73;2.30;;;;;;;5.24;100.00;102054.41;7388133;19;20765;-40
2023/05/17 05:38:31;;;;;;;9.87;2.00;;;;;;;5.23;100.00;102057.75;7391148;19;20394;-44
2023/05/17 05:41:03;;;;;;;15.30;2.47;;;;;;;5.28;100.00;102063.25;7389066;19;20391;-41
2023/05/17 05:43:34;;;;;;;20.90;3.60;;;;;;;5.28;100.00;102065.81;7391190;19;20393;-44
2023/05/17 05:46:04;;;;;;;19.10;2.67;;;;;;;5.30;100.00;102076.19;7388528;19;20972;-42
2023/05/17 05:48:38;;;;;;;14.67;3.13;;;;;;;5.27;100.00;102085.41;7391033;19;20386;-43
2023/05/17 05:51:07;;;;;;;54.80;20.83;;;;;;;5.85;100.00;102087.56;7388237;19;20462;-42
2023/05/17 05:53:37;;;;;;;11.97;2.20;;;;;;;5.91;100.00;102103.44;7391006;19;20403;-46
2023/05/17 05:56:10;;;;;;;34.27;14.33;;;;;;;5.86;100.00;102098.72;7389818;19;20392;-42
2023/05/17 05:58:40;;;;;;;12.57;2.70;;;;;;;5.63;100.00;102107.94;7391548;19;20473;-41
2023/05/17 06:01:09;;;;;;;17.20;3.20;;;;;;;5.64;100.00;102120.00;7388476;19;20394;-44
2023/05/17 06:03:39;;;;;;;14.00;5.10;;;;;;;5.60;100.00;102130.75;7391223;19;20409;-42
2023/05/17 06:06:09;;;;;;;10.27;2.60;;;;;;;5.65;100.00;102139.72;7387245;19;20403;-42
2023/05/17 06:08:38;;;;;;;15.90;3.93;;;;;;;5.64;100.00;102148.16;7390025;19;20420;-41
2023/05/17 06:11:11;;;;;;;14.30;3.20;;;;;;;5.64;100.00;102155.84;7388698;19;20474;-42
2023/05/17 06:13:40;;;;;;;12.20;2.20;;;;;;;5.62;100.00;102165.03;7391244;19;20405;-41
2023/05/17 06:16:10;;;;;;;13.30;3.30;;;;;;;5.67;100.00;102163.78;7387437;19;20388;-40
2023/05/17 06:18:39;;;;;;;12.50;2.10;;;;;;;5.76;100.00;102179.03;7390384;19;20424;-42
2023/05/17 06:21:12;;;;;;;15.30;3.20;;;;;;;5.93;100.00;102188.13;7388369;19;20398;-42
2023/05/17 06:23:41;;;;;;;9.23;1.70;;;;;;;5.80;100.00;102187.09;7392554;19;20462;-42
2023/05/17 06:26:13;;;;;;;16.20;3.63;;;;;;;5.93;100.00;102198.38;7249318;19;2713457;-42
2023/05/17 06:28:43;;;;;;;18.37;2.37;;;;;;;5.86;100.00;102211.44;7389886;19;20530;-43
2023/05/17 06:31:13;;;;;;;10.40;1.67;;;;;;;5.80;100.00;102217.81;7385813;19;20446;-41
2023/05/17 06:33:42;;;;;;;14.77;2.20;;;;;;;5.74;100.00;102242.03;7393445;19;20394;-41
2023/05/17 06:36:12;;;;;;;10.73;2.07;;;;;;;5.72;100.00;102243.53;7387733;19;20467;-41
2023/05/17 06:38:42;;;;;;;9.57;2.20;;;;;;;5.64;100.00;102248.03;7391005;19;20403;-43
2023/05/17 06:41:14;;;;;;;16.53;1.83;;;;;;;5.67;100.00;102236.38;7388310;19;20439;-41
2023/05/17 06:43:44;;;;;;;6.60;1.37;;;;;;;5.82;100.00;102253.81;7390421;19;20391;-43
2023/05/17 06:46:13;;;;;;;8.03;1.90;;;;;;;5.86;100.00;102272.91;7386713;19;20432;-41
2023/05/17 06:48:46;;;;;;;13.17;1.73;;;;;;;5.90;100.00;102285.22;7390095;19;20951;-43
2023/05/17 06:51:19;;;;;;;11.20;2.03;;;;;;;5.84;100.00;102307.75;7388541;19;20425;-40
2023/05/17 06:53:49;;;;;;;9.10;1.53;;;;;;;5.80;100.00;102315.16;7390182;19;20391;-41
2023/05/17 06:56:21;;;;;;;22.43;1.93;;;;;;;5.84;100.00;102311.19;7386642;19;20447;-44
2023/05/17 06:58:50;;;;;;;10.47;3.03;;;;;;;5.89;100.00;102316.75;7389916;19;20413;-42
2023/05/17 07:01:20;;;;;;;8.00;1.60;;;;;;;5.90;100.00;102331.34;7386137;19;20399;-42
2023/05/17 07:03:50;;;;;;;11.77;2.00;;;;;;;5.98;100.00;102345.69;7389951;19;20462;-44
2023/05/17 07:06:20;;;;;;;14.50;2.17;;;;;;;6.10;100.00;102335.63;7385708;19;20482;-42
2023/05/17 07:08:49;;;;;;;8.63;1.90;;;;;;;6.16;100.00;102345.50;7390802;19;20390;-45
2023/05/17 07:11:21;;;;;;;11.93;2.00;;;;;;;6.24;100.00;102344.50;7386768;19;20414;-43
2023/05/17 07:13:51;;;;;;;22.50;2.90;;;;;;;6.22;100.00;102356.28;7391847;19;20384;-41
2023/05/17 07:16:22;;;;;;;15.27;2.17;;;;;;;6.21;100.00;102352.81;7386305;19;20441;-43
2023/05/17 07:18:52;;;;;;;11.73;2.27;;;;;;;6.22;100.00;102346.03;7389269;19;20759;-43
2023/05/17 07:21:22;;;;;;;7.90;2.00;;;;;;;6.26;100.00;102342.94;7386293;19;20439;-42
2023/05/17 07:23:52;;;;;;;16.60;2.23;;;;;;;6.29;100.00;102347.44;7388871;19;20959;-42
2023/05/17 07:26:24;;;;;;;10.20;1.50;;;;;;;6.21;100.00;102345.13;7384692;19;20427;-42
2023/05/17 07:28:54;;;;;;;14.67;2.27;;;;;;;6.41;100.00;102352.72;7386095;19;20475;-40
2023/05/17 07:31:23;;;;;;;6.60;1.53;;;;;;;6.44;100.00;102343.63;7389110;19;20460;-45
2023/05/17 07:33:53;;;;;;;9.87;1.90;;;;;;;6.65;100.00;102332.47;7393653;19;20403;-44
2023/05/17 07:36:26;;;;;;;15.07;2.63;;;;;;;6.65;100.00;102332.47;7388239;19;20462;-41
2023/05/17 07:38:56;;;;;;;8.70;1.40;;;;;;;6.71;100.00;102336.44;7391853;19;20423;-43
2023/05/17 07:41:28;;;;;;;15.20;3.43;;;;;;;6.71;100.00;102358.59;7388529;19;20494;-41
2023/05/17 07:43:57;;;;;;;16.97;3.63;;;;;;;6.82;100.00;102356.94;7393207;19;20495;-40
2023/05/17 07:46:27;;;;;;;31.80;7.20;;;;;;;7.36;100.00;102356.19;7387100;19;20494;-41
2023/05/17 07:49:00;;;;;;;11.60;2.37;;;;;;;7.22;100.00;102359.31;7393085;19;20416;-41
2023/05/17 07:51:30;;;;;;;15.47;3.70;;;;;;;7.15;100.00;102371.66;7389236;19;21118;-42
2023/05/17 07:54:02;;;;;;;20.23;4.20;;;;;;;7.32;100.00;102377.25;7394136;19;20406;-41
2023/05/17 07:56:34;;;;;;;17.70;7.07;;;;;;;6.92;100.00;102394.53;7386911;19;20411;-44
2023/05/17 07:59:03;;;;;;;13.30;3.23;;;;;;;6.96;100.00;102387.19;7393289;19;20808;-41
2023/05/17 08:01:33;;;;;;;65.63;9.60;;;;;;;6.86;100.00;102397.47;7387443;19;21313;-42
2023/05/17 08:04:03;;;;;;;10.53;2.37;;;;;;;6.82;100.00;102403.13;7390973;19;20428;-44
2023/05/17 08:06:32;;;;;;;10.70;1.73;;;;;;;6.91;100.00;102403.00;7386490;19;20423;-40
2023/05/17 08:09:02;;;;;;;11.63;1.67;;;;;;;7.17;100.00;102417.97;7390746;19;20978;-43
2023/05/17 08:11:44;;;;;;;7.20;1.97;;;;;;;7.39;100.00;102420.63;7387620;19;20442;-43
2023/05/17 08:14:15;;;;;;;18.90;2.57;;;;;;;7.66;100.00;102426.22;7391863;19;20478;-41
2023/05/17 08:16:47;;;;;;;13.97;2.83;;;;;;;7.85;100.00;102427.69;7387461;19;20486;-44
2023/05/17 08:19:20;;;;;;;16.30;2.27;;;;;;;7.96;100.00;102437.13;7390682;19;20430;-43
2023/05/17 08:21:49;;;;;;;13.60;2.40;;;;;;;8.07;100.00;102443.16;7387358;19;20498;-39
2023/05/17 08:24:19;;;;;;;15.13;2.53;;;;;;;8.15;100.00;102437.72;7391585;19;20510;-40
2023/05/17 08:26:51;;;;;;;14.80;3.43;;;;;;;8.21;100.00;102454.50;7386305;19;20856;-44
2023/05/17 08:29:21;;;;;;;14.43;2.27;;;;;;;8.32;100.00;102469.88;7390307;19;20753;-45
2023/05/17 08:31:51;;;;;;;15.40;2.13;;;;;;;8.40;100.00;102466.22;7387204;19;20440;-44
2023/05/17 08:34:22;;;;;;;9.27;2.40;;;;;;;8.23;100.00;102473.53;7392047;19;20460;-42
2023/05/17 08:36:52;;;;;;;8.97;2.03;;;;;;;8.41;100.00;102498.00;7386739;19;20427;-42
2023/05/17 08:39:22;;;;;;;11.07;3.43;;;;;;;8.59;100.00;102496.00;7391512;19;20416;-42
2023/05/17 08:41:58;;;;;;;16.97;4.80;;;;;;;8.72;100.00;102491.00;7387202;19;20516;-44
2023/05/17 08:44:29;;;;;;;9.70;2.50;;;;;;;8.73;100.00;102486.78;7392024;19;20453;-43
2023/05/17 08:46:59;;;;;;;31.30;6.30;;;;;;;8.55;100.00;102492.28;7386854;19;20814;-44
2023/05/17 08:49:32;;;;;;;11.00;2.00;;;;;;;8.47;100.00;102488.19;7390342;19;20411;-41
2023/05/17 08:52:08;;;;;;;26.70;5.27;;;;;;;8.41;100.00;102504.03;7388715;19;20454;-42
2023/05/17 08:54:38;;;;;;;9.87;2.23;;;;;;;8.29;100.00;102490.19;7395506;19;20431;-41
2023/05/17 08:57:12;;;;;;;22.60;2.63;;;;;;;8.20;100.00;102493.84;7396975;19;20494;-45
2023/05/17 08:59:42;;;;;;;13.80;2.27;;;;;;;8.21;100.00;102503.34;7406136;19;20406;-43
2023/05/17 09:02:12;;;;;;;11.70;2.30;;;;;;;8.43;100.00;102517.94;7397034;19;20442;-43
2023/05/17 09:04:42;;;;;;;7.80;2.87;;;;;;;8.55;100.00;102506.84;7400768;19;20460;-42
2023/05/17 09:07:12;;;;;;;10.60;2.03;;;;;;;8.60;100.00;102515.78;7395479;19;20423;-45
2023/05/17 09:09:44;;;;;;;13.70;2.10;;;;;;;8.55;100.00;102515.44;7400379;19;20412;-45
2023/05/17 09:12:17;;;;;;;25.07;4.00;;;;;;;8.58;100.00;102519.94;7393710;19;20419;-41
2023/05/17 09:14:46;;;;;;;11.43;2.97;;;;;;;8.84;100.00;102533.91;7399601;19;20442;-43
2023/05/17 09:17:16;;;;;;;15.43;3.50;;;;;;;8.53;100.00;102534.09;7392863;19;20435;-41
2023/05/17 09:19:46;;;;;;;16.83;2.17;;;;;;;8.88;100.00;102533.38;7397916;19;20416;-43
2023/05/17 09:22:19;;;;;;;11.60;2.20;;;;;;;9.14;100.00;102543.09;7393326;19;20434;-42
2023/05/17 09:24:48;;;;;;;9.67;2.10;;;;;;;9.53;100.00;102529.66;7396924;19;20530;-43
2023/05/17 09:27:21;;;;;;;10.57;2.30;;;;;;;9.37;100.00;102535.31;7391305;19;20431;-40
2023/05/17 09:29:50;;;;;;;16.60;1.93;;;;;;;9.25;100.00;102540.44;7397002;19;20483;-43
2023/05/17 09:32:21;;;;;;;10.50;2.00;;;;;;;8.89;100.00;102530.03;7392787;19;20450;-43
2023/05/17 09:34:51;;;;;;;19.60;3.03;;;;;;;8.84;100.00;102521.06;7396857;19;20456;-40
2023/05/17 09:37:21;;;;;;;9.40;2.37;;;;;;;9.39;100.00;102518.31;7390540;19;20514;-41
2023/05/17 09:39:51;;;;;;;18.47;5.00;;;;;;;9.41;100.00;102527.03;7396933;19;20411;-42
2023/05/17 09:42:27;;;;;;;18.83;2.50;;;;;;;9.30;100.00;102522.00;7390635;19;20452;-39
2023/05/17 09:45:00;;;;;;;25.70;3.87;;;;;;;9.22;100.00;102530.81;7395819;19;20439;-43
2023/05/17 09:47:32;;;;;;;18.83;3.30;;;;;;;9.27;100.00;102544.94;7389524;19;20494;-42
2023/05/17 09:50:03;;;;;;;10.30;3.03;;;;;;;9.67;100.00;102543.53;7389162;19;20396;-45
2023/05/17 09:52:34;;;;;;;17.53;1.80;;;;;;;9.93;100.00;102526.50;7389365;19;20407;-44
2023/05/17 09:55:03;;;;;;;10.30;1.60;;;;;;;10.13;100.00;102503.06;7391409;19;20493;-42
2023/05/17 09:57:41;;;;;;;12.00;2.50;;;;;;;10.59;100.00;102507.13;7389335;19;20407;-42
2023/05/17 10:00:12;;;;;;;6.53;1.50;;;;;;;10.13;100.00;102471.22;7392234;19;20763;-45
2023/05/17 10:02:42;;;;;;;9.80;1.40;;;;;;;9.95;100.00;102439.88;7389635;19;20832;-40
2023/05/17 10:05:14;;;;;;;7.83;1.47;;;;;;;10.08;100.00;102483.78;7392053;19;20427;-42
2023/05/17 10:07:43;;;;;;;6.80;1.70;;;;;;;10.04;100.00;102492.09;7390253;19;20421;-40
2023/05/17 10:10:13;;;;;;;10.00;2.30;;;;;;;10.21;100.00;102484.66;7393197;19;20398;-44
2023/05/17 10:12:46;;;;;;;7.93;2.40;;;;;;;10.43;100.00;102493.94;7389694;19;20416;-46
2023/05/17 10:15:17;;;;;;;14.33;1.97;;;;;;;10.52;100.00;102494.59;7391798;19;20428;-40
2023/05/17 10:17:48;;;;;;;9.33;1.77;;;;;;;10.29;100.00;102498.13;7389036;19;20420;-41
2023/05/17 10:20:18;;;;;;;18.10;2.60;;;;;;;9.81;100.00;102495.59;7390893;19;20396;-42
2023/05/17 10:22:48;;;;;;;11.97;1.80;;;;;;;9.80;100.00;102510.16;7389952;19;20458;-42
2023/05/17 10:25:18;;;;;;;10.70;2.57;;;;;;;9.86;100.00;102533.78;7395138;19;20443;-41
2023/05/17 10:27:51;;;;;;;12.43;2.23;;;;;;;9.80;100.00;102535.91;7388919;19;21008;-42
2023/05/17 10:30:21;;;;;;;10.80;1.93;;;;;;;9.72;100.00;102560.25;7390846;19;20405;-45
2023/05/17 10:32:51;;;;;;;6.30;1.97;;;;;;;9.89;100.00;102558.91;7389908;19;20766;-44
2023/05/17 10:35:22;;;;;;;9.63;1.87;;;;;;;9.79;100.00;102570.22;7390050;19;20432;-45
2023/05/17 10:37:52;;;;;;;12.67;2.33;;;;;;;9.88;100.00;102551.97;7388778;19;20424;-42
2023/05/17 10:40:23;;;;;;;9.73;1.87;;;;;;;9.68;100.00;102564.28;7384471;19;20793;-35
2023/05/17 10:42:57;;;;;;;10.77;2.10;;;;;;;9.93;100.00;102580.66;7390382;19;20978;-35
2023/05/17 10:45:28;;;;;;;6.73;1.33;;;;;;;10.25;100.00;102575.28;7393841;19;20407;-34
2023/05/17 10:47:58;;;;;;;10.90;2.30;;;;;;;10.24;100.00;102551.94;7391386;19;20441;-34
2023/05/17 10:50:29;;;;;;;7.47;1.13;;;;;;;10.30;100.00;102544.63;7395157;19;20459;-35
2023/05/17 10:53:01;;;;;;;5.97;1.50;;;;;;;10.42;100.00;102546.31;7391676;19;20467;-35
2023/05/17 10:55:39;;;;;;;11.47;1.40;;;;;;;10.12;100.00;102565.72;7394097;19;20780;-35
2023/05/17 10:58:22;;;;;;;4.80;1.10;;;;;;;10.00;100.00;102563.19;7392068;19;20987;-34
2023/05/17 11:00:53;;;;;;;10.00;1.90;;;;;;;9.86;100.00;102575.03;7392017;19;20465;-31
2023/05/17 11:03:28;;;;;;;10.57;1.63;;;;;;;9.71;100.00;102597.13;7392474;19;20418;-35
2023/05/17 11:06:16;;;;;;;11.73;1.70;;;;;;;9.42;100.00;102611.28;7392333;19;21060;-35
2023/05/17 11:09:09;;;;;;;6.17;1.23;;;;;;;9.54;100.00;102629.38;7394468;19;20449;-35
2023/05/17 11:11:39;;;;;;;8.47;1.60;;;;;;;9.90;100.00;102637.16;7386833;19;20423;-36
2023/05/17 11:14:11;;;;;;;5.17;1.40;;;;;;;10.21;100.00;102634.28;7391020;19;20405;-35
2023/05/17 11:16:41;;;;;;;10.20;1.60;;;;;;;10.38;100.00;102623.50;7388011;19;20771;-35
2023/05/17 11:19:12;;;;;;;29.17;9.30;;;;;;;10.61;100.00;102616.53;7392221;19;20758;-34
2023/05/17 11:21:48;;;;;;;14.03;3.73;;;;;;;11.22;100.00;102602.63;7387587;19;20429;-36
2023/05/17 11:24:26;;;;;;;10.37;3.77;;;;;;;11.15;100.00;102575.50;7392554;19;20939;-36
2023/05/17 11:26:56;;;;;;;17.00;5.90;;;;;;;10.60;100.00;102578.63;7389461;19;20423;-34
2023/05/17 11:29:32;;;;;;;14.97;4.50;;;;;;;10.67;100.00;102575.66;7392645;19;20933;-35
2023/05/17 11:32:07;;;;;;;10.20;2.03;;;;;;;10.75;100.00;102564.97;7390064;19;20443;-35
2023/05/17 11:34:37;;;;;;;21.97;6.90;;;;;;;10.17;100.00;102571.25;7393277;19;20417;-34
2023/05/17 11:37:12;;;;;;;7.73;3.10;;;;;;;10.10;100.00;102589.66;7386993;19;20443;-35